EXU350 EFHK-EFRO
Flight info
| Callsign | EXU350 |
|---|---|
| Flight time | 1h 6m |
| Altitude | 35000 |
| Route | N0464F400 TEVR5C TEVRU Y75 NEPIX NEPI3C |
| Aircraft | CL60/M-SBDGHM1RWXY/LB2 |
Departure
| Time | 2026-04-23 20:18 |
|---|---|
| Airport | Helsinki Vantaa Airport (EFHK) |
Arrival
| Time | 2026-04-23 21:24 |
|---|---|
| Airport | Rovaniemi Airport (EFRO) |
| Time | Latitude | Longitude | Altitude | Speed | Heading |
|---|---|---|---|---|---|
| 2026-04-23 19:30 | 60.30873 | 24.94505 | 189 ft | 0 kts | 48° |
| 2026-04-23 20:12 | 60.30874 | 24.94505 | 189 ft | 0 kts | 49° |
| 2026-04-23 20:13 | 60.30864 | 24.94522 | 189 ft | 5 kts | 202° |
| 2026-04-23 20:13 | 60.30839 | 24.94448 | 189 ft | 7 kts | 243° |
| 2026-04-23 20:13 | 60.30858 | 24.94353 | 189 ft | 8 kts | 265° |
| 2026-04-23 20:13 | 60.30817 | 24.94253 | 189 ft | 10 kts | 229° |
| 2026-04-23 20:14 | 60.30761 | 24.94130 | 189 ft | 13 kts | 227° |
| 2026-04-23 20:14 | 60.30739 | 24.93995 | 189 ft | 9 kts | 312° |
| 2026-04-23 20:14 | 60.30794 | 24.93991 | 189 ft | 9 kts | 51° |
| 2026-04-23 20:14 | 60.30851 | 24.94088 | 189 ft | 11 kts | 10° |
| 2026-04-23 20:15 | 60.30928 | 24.94060 | 189 ft | 11 kts | 347° |
| 2026-04-23 20:15 | 60.31006 | 24.94006 | 189 ft | 13 kts | 313° |
| 2026-04-23 20:15 | 60.31040 | 24.93879 | 189 ft | 11 kts | 289° |
| 2026-04-23 20:15 | 60.31076 | 24.93764 | 189 ft | 0 kts | 317° |
| 2026-04-23 20:16 | 60.31087 | 24.93744 | 189 ft | 3 kts | 320° |
| 2026-04-23 20:16 | 60.31116 | 24.93698 | 188 ft | 6 kts | 323° |
| 2026-04-23 20:16 | 60.31143 | 24.93667 | 189 ft | 1 kts | 23° |
| 2026-04-23 20:16 | 60.31147 | 24.93675 | 189 ft | 0 kts | 48° |
| 2026-04-23 20:17 | 60.31147 | 24.93676 | 189 ft | 0 kts | 47° |
| 2026-04-23 20:17 | 60.31148 | 24.93677 | 189 ft | 0 kts | 47° |
| 2026-04-23 20:17 | 60.31148 | 24.93678 | 189 ft | 0 kts | 47° |
| 2026-04-23 20:18 | 60.31191 | 24.93774 | 189 ft | 45 kts | 48° |
| 2026-04-23 20:18 | 60.31656 | 24.94807 | 189 ft | 146 kts | 46° |
| 2026-04-23 20:18 | 60.32428 | 24.96584 | 743 ft | 181 kts | 48° |
| 2026-04-23 20:18 | 60.33280 | 24.98634 | 1516 ft | 214 kts | 47° |
| 2026-04-23 20:19 | 60.34263 | 25.00919 | 2532 ft | 220 kts | 45° |
| 2026-04-23 20:19 | 60.35261 | 25.03242 | 3751 ft | 226 kts | 44° |
| 2026-04-23 20:19 | 60.36233 | 25.05559 | 5285 ft | 224 kts | 48° |
| 2026-04-23 20:19 | 60.37208 | 25.07861 | 6779 ft | 220 kts | 43° |
| 2026-04-23 20:20 | 60.38221 | 25.10136 | 7934 ft | 231 kts | 42° |
| 2026-04-23 20:20 | 60.39397 | 25.12459 | 8918 ft | 242 kts | 28° |
| 2026-04-23 20:20 | 60.40994 | 25.13150 | 9909 ft | 247 kts | 354° |
| 2026-04-23 20:20 | 60.42707 | 25.12813 | 11170 ft | 254 kts | 356° |
| 2026-04-23 20:21 | 60.44421 | 25.12845 | 12572 ft | 253 kts | 360° |
| 2026-04-23 20:21 | 60.46149 | 25.12944 | 13812 ft | 254 kts | 359° |
| 2026-04-23 20:21 | 60.47886 | 25.13019 | 15011 ft | 255 kts | 359° |
| 2026-04-23 20:21 | 60.49654 | 25.13120 | 16097 ft | 259 kts | 358° |
| 2026-04-23 20:22 | 60.51395 | 25.12493 | 17027 ft | 263 kts | 340° |
| 2026-04-23 20:22 | 60.53082 | 25.10896 | 17642 ft | 272 kts | 336° |
| 2026-04-23 20:22 | 60.54789 | 25.09226 | 18265 ft | 271 kts | 336° |
| 2026-04-23 20:22 | 60.56448 | 25.07609 | 18894 ft | 268 kts | 336° |
| 2026-04-23 20:23 | 60.58129 | 25.05973 | 19566 ft | 266 kts | 338° |
| 2026-04-23 20:23 | 60.59777 | 25.04477 | 20413 ft | 264 kts | 338° |
| 2026-04-23 20:23 | 60.61462 | 25.02906 | 21074 ft | 270 kts | 338° |
| 2026-04-23 20:23 | 60.63163 | 25.01266 | 21726 ft | 274 kts | 338° |
| 2026-04-23 20:24 | 60.64869 | 24.99557 | 22301 ft | 276 kts | 338° |
| 2026-04-23 20:24 | 60.66592 | 24.97893 | 22919 ft | 273 kts | 339° |
| 2026-04-23 20:24 | 60.68277 | 24.96270 | 23546 ft | 271 kts | 339° |
| 2026-04-23 20:24 | 60.69989 | 24.94579 | 24179 ft | 271 kts | 339° |
| 2026-04-23 20:25 | 60.71664 | 24.92913 | 24806 ft | 270 kts | 338° |
| 2026-04-23 20:25 | 60.72631 | 24.91953 | 25170 ft | 270 kts | 338° |
| 2026-04-23 20:25 | 60.72883 | 24.91703 | 25291 ft | 269 kts | 339° |
| 2026-04-23 20:26 | 60.74535 | 24.90065 | 26080 ft | 269 kts | 339° |
| 2026-04-23 20:26 | 60.76214 | 24.88409 | 26787 ft | 272 kts | 339° |
| 2026-04-23 20:26 | 60.77941 | 24.86700 | 27415 ft | 276 kts | 338° |
| 2026-04-23 20:26 | 60.79668 | 24.84986 | 28053 ft | 279 kts | 338° |
| 2026-04-23 20:27 | 60.81423 | 24.83276 | 28678 ft | 280 kts | 341° |
| 2026-04-23 20:27 | 60.83317 | 24.82502 | 29314 ft | 281 kts | 356° |
| 2026-04-23 20:27 | 60.85274 | 24.82595 | 29936 ft | 282 kts | 358° |
| 2026-04-23 20:27 | 60.87249 | 24.82702 | 30566 ft | 282 kts | 358° |
| 2026-04-23 20:28 | 60.89038 | 24.82793 | 31127 ft | 281 kts | 358° |
| 2026-04-23 20:28 | 60.90939 | 24.82889 | 31714 ft | 280 kts | 358° |
| 2026-04-23 20:28 | 60.92907 | 24.82987 | 32016 ft | 287 kts | 359° |
| 2026-04-23 20:28 | 60.94929 | 24.83085 | 32228 ft | 295 kts | 359° |
| 2026-04-23 20:29 | 60.96972 | 24.83185 | 32488 ft | 301 kts | 358° |
| 2026-04-23 20:29 | 60.99083 | 24.83290 | 32832 ft | 304 kts | 359° |
| 2026-04-23 20:29 | 61.01205 | 24.83394 | 33160 ft | 307 kts | 358° |
| 2026-04-23 20:29 | 61.03351 | 24.83498 | 33492 ft | 310 kts | 358° |
| 2026-04-23 20:30 | 61.05519 | 24.83605 | 33813 ft | 313 kts | 358° |
| 2026-04-23 20:30 | 61.09878 | 24.83817 | 34393 ft | 318 kts | 359° |
| 2026-04-23 20:30 | 61.12106 | 24.83926 | 34656 ft | 320 kts | 359° |
| 2026-04-23 20:31 | 61.14349 | 24.84035 | 34861 ft | 324 kts | 359° |
| 2026-04-23 20:31 | 61.16611 | 24.84145 | 35055 ft | 328 kts | 359° |
| 2026-04-23 20:31 | 61.18883 | 24.84255 | 35257 ft | 332 kts | 359° |
| 2026-04-23 20:31 | 61.21204 | 24.84368 | 35443 ft | 335 kts | 359° |
| 2026-04-23 20:32 | 61.23539 | 24.84481 | 35604 ft | 339 kts | 359° |
| 2026-04-23 20:32 | 61.25926 | 24.84598 | 35805 ft | 341 kts | 359° |
| 2026-04-23 20:32 | 61.28301 | 24.84714 | 35975 ft | 344 kts | 359° |
| 2026-04-23 20:32 | 61.30709 | 24.84831 | 36142 ft | 347 kts | 359° |
| 2026-04-23 20:33 | 61.33057 | 24.84945 | 36298 ft | 350 kts | 359° |
| 2026-04-23 20:33 | 61.35482 | 24.85064 | 36426 ft | 353 kts | 359° |
| 2026-04-23 20:33 | 61.37986 | 24.85186 | 36557 ft | 357 kts | 360° |
| 2026-04-23 20:33 | 61.40467 | 24.85308 | 36721 ft | 359 kts | 360° |
| 2026-04-23 20:34 | 61.42977 | 24.85431 | 36857 ft | 362 kts | 360° |
| 2026-04-23 20:34 | 61.45477 | 24.85555 | 36986 ft | 364 kts | 359° |
| 2026-04-23 20:34 | 61.48051 | 24.85681 | 37106 ft | 367 kts | 359° |
| 2026-04-23 20:34 | 61.50597 | 24.85807 | 37250 ft | 369 kts | 360° |
| 2026-04-23 20:35 | 61.53162 | 24.85934 | 37368 ft | 371 kts | 360° |
| 2026-04-23 20:35 | 61.55749 | 24.86062 | 37498 ft | 373 kts | 360° |
| 2026-04-23 20:35 | 61.58351 | 24.86191 | 37630 ft | 374 kts | 360° |
| 2026-04-23 20:35 | 61.60923 | 24.86318 | 37744 ft | 375 kts | 360° |
| 2026-04-23 20:36 | 61.63546 | 24.86448 | 37856 ft | 377 kts | 359° |
| 2026-04-23 20:36 | 61.66192 | 24.86580 | 37976 ft | 379 kts | 0° |
| 2026-04-23 20:36 | 61.68796 | 24.86710 | 38094 ft | 379 kts | 360° |
| 2026-04-23 20:36 | 61.71426 | 24.87059 | 38206 ft | 382 kts | 5° |
| 2026-04-23 20:37 | 61.74047 | 24.87990 | 38320 ft | 384 kts | 7° |
| 2026-04-23 20:37 | 61.75811 | 24.88650 | 38378 ft | 385 kts | 7° |
| 2026-04-23 20:37 | 61.79310 | 24.89949 | 38509 ft | 386 kts | 7° |
| 2026-04-23 20:37 | 61.81963 | 24.90934 | 38632 ft | 387 kts | 7° |
| 2026-04-23 20:38 | 61.84622 | 24.91922 | 38742 ft | 389 kts | 7° |
| 2026-04-23 20:38 | 61.87268 | 24.92905 | 38870 ft | 389 kts | 7° |
| 2026-04-23 20:38 | 61.89939 | 24.93898 | 38995 ft | 389 kts | 8° |
| 2026-04-23 20:38 | 61.92571 | 24.94878 | 39109 ft | 390 kts | 7° |
| 2026-04-23 20:39 | 61.95269 | 24.95883 | 39231 ft | 390 kts | 8° |
| 2026-04-23 20:39 | 61.97930 | 24.96877 | 39367 ft | 390 kts | 7° |
| 2026-04-23 20:39 | 62.03281 | 24.98876 | 39573 ft | 390 kts | 8° |
| 2026-04-23 20:40 | 62.08646 | 25.00886 | 39742 ft | 392 kts | 8° |
| 2026-04-23 20:40 | 62.14027 | 25.02907 | 39765 ft | 397 kts | 8° |
| 2026-04-23 20:41 | 62.19556 | 25.03903 | 39764 ft | 400 kts | 360° |
| 2026-04-23 20:41 | 62.25237 | 25.04087 | 39761 ft | 404 kts | 360° |
| 2026-04-23 20:42 | 62.30910 | 25.04286 | 39757 ft | 408 kts | 360° |
| 2026-04-23 20:42 | 62.36604 | 25.04491 | 39763 ft | 412 kts | 359° |
| 2026-04-23 20:43 | 62.42353 | 25.04703 | 39760 ft | 415 kts | 360° |
| 2026-04-23 20:43 | 62.48160 | 25.04920 | 39755 ft | 416 kts | 0° |
| 2026-04-23 20:44 | 62.53949 | 25.05140 | 39765 ft | 415 kts | 360° |
| 2026-04-23 20:44 | 62.59752 | 25.05362 | 39767 ft | 415 kts | 360° |
| 2026-04-23 20:45 | 62.65580 | 25.05587 | 39761 ft | 415 kts | 360° |
| 2026-04-23 20:45 | 62.71372 | 25.05812 | 39767 ft | 415 kts | 360° |
| 2026-04-23 20:46 | 62.77120 | 25.06036 | 39757 ft | 416 kts | 360° |
| 2026-04-23 20:46 | 62.82906 | 25.06263 | 39764 ft | 416 kts | 360° |
| 2026-04-23 20:47 | 62.87711 | 25.06452 | 39765 ft | 416 kts | 360° |
| 2026-04-23 20:47 | 62.94473 | 25.06720 | 39758 ft | 417 kts | 0° |
| 2026-04-23 20:48 | 62.99307 | 25.06912 | 39766 ft | 417 kts | 360° |
| 2026-04-23 20:48 | 63.06052 | 25.07182 | 39763 ft | 416 kts | 360° |
| 2026-04-23 20:49 | 63.11834 | 25.07414 | 39760 ft | 417 kts | 360° |
| 2026-04-23 20:49 | 63.17674 | 25.07649 | 39765 ft | 421 kts | 360° |
| 2026-04-23 20:50 | 63.23544 | 25.07887 | 39764 ft | 426 kts | 359° |
| 2026-04-23 20:50 | 63.29513 | 25.08129 | 39764 ft | 430 kts | 0° |
| 2026-04-23 20:51 | 63.35490 | 25.08374 | 39764 ft | 431 kts | 360° |
| 2026-04-23 20:51 | 63.41456 | 25.08620 | 39758 ft | 431 kts | 360° |
| 2026-04-23 20:52 | 63.47434 | 25.08867 | 39764 ft | 431 kts | 360° |
| 2026-04-23 20:52 | 63.53446 | 25.09116 | 39750 ft | 432 kts | 359° |
| 2026-04-23 20:53 | 63.59427 | 25.09364 | 39761 ft | 432 kts | 359° |
| 2026-04-23 20:53 | 63.65418 | 25.09614 | 39757 ft | 433 kts | 360° |
| 2026-04-23 20:54 | 63.71430 | 25.09867 | 39759 ft | 433 kts | 359° |
| 2026-04-23 20:54 | 63.77414 | 25.10114 | 39767 ft | 433 kts | 360° |
| 2026-04-23 20:55 | 63.83441 | 25.10219 | 39769 ft | 433 kts | 359° |
| 2026-04-23 20:55 | 63.89454 | 25.10311 | 39766 ft | 434 kts | 359° |
| 2026-04-23 20:56 | 63.95449 | 25.10405 | 39768 ft | 434 kts | 359° |
| 2026-04-23 20:56 | 64.01480 | 25.10500 | 39767 ft | 434 kts | 359° |
| 2026-04-23 20:57 | 64.07492 | 25.10595 | 39769 ft | 434 kts | 359° |
| 2026-04-23 20:57 | 64.13509 | 25.10691 | 39762 ft | 435 kts | 359° |
| 2026-04-23 20:58 | 64.19552 | 25.10788 | 39760 ft | 436 kts | 359° |
| 2026-04-23 20:58 | 64.25582 | 25.10886 | 39763 ft | 436 kts | 359° |
| 2026-04-23 20:59 | 64.31640 | 25.10985 | 39761 ft | 436 kts | 359° |
| 2026-04-23 20:59 | 64.37672 | 25.11084 | 39759 ft | 436 kts | 359° |
| 2026-04-23 21:00 | 64.43732 | 25.11183 | 39760 ft | 436 kts | 359° |
| 2026-04-23 21:00 | 64.48770 | 25.11266 | 39757 ft | 436 kts | 359° |
| 2026-04-23 21:01 | 64.55808 | 25.11384 | 39280 ft | 433 kts | 359° |
| 2026-04-23 21:01 | 64.58792 | 25.11434 | 38749 ft | 427 kts | 359° |
| 2026-04-23 21:01 | 64.61739 | 25.11484 | 38214 ft | 421 kts | 359° |
| 2026-04-23 21:02 | 64.63666 | 25.11517 | 37889 ft | 417 kts | 359° |
| 2026-04-23 21:02 | 64.67497 | 25.11582 | 37137 ft | 414 kts | 358° |
| 2026-04-23 21:02 | 64.70329 | 25.11630 | 36605 ft | 409 kts | 358° |
| 2026-04-23 21:02 | 64.73132 | 25.11678 | 36060 ft | 403 kts | 357° |
| 2026-04-23 21:03 | 64.75905 | 25.11727 | 35536 ft | 397 kts | 357° |
| 2026-04-23 21:03 | 64.78638 | 25.11775 | 35012 ft | 390 kts | 356° |
| 2026-04-23 21:03 | 64.81321 | 25.11823 | 34507 ft | 382 kts | 356° |
| 2026-04-23 21:03 | 64.83951 | 25.11870 | 34014 ft | 374 kts | 356° |
| 2026-04-23 21:04 | 64.86503 | 25.11916 | 33527 ft | 366 kts | 355° |
| 2026-04-23 21:04 | 64.89034 | 25.11962 | 33029 ft | 358 kts | 355° |
| 2026-04-23 21:04 | 64.90678 | 25.11992 | 32728 ft | 352 kts | 355° |
| 2026-04-23 21:04 | 64.93880 | 25.12049 | 32115 ft | 342 kts | 355° |
| 2026-04-23 21:05 | 64.96225 | 25.12090 | 31671 ft | 335 kts | 355° |
| 2026-04-23 21:05 | 64.98515 | 25.12128 | 31224 ft | 327 kts | 354° |
| 2026-04-23 21:05 | 65.00764 | 25.12168 | 30783 ft | 318 kts | 354° |
| 2026-04-23 21:05 | 65.02960 | 25.12214 | 30373 ft | 309 kts | 354° |
| 2026-04-23 21:06 | 65.05081 | 25.12254 | 29962 ft | 299 kts | 353° |
| 2026-04-23 21:06 | 65.07117 | 25.12291 | 29579 ft | 289 kts | 354° |
| 2026-04-23 21:06 | 65.09106 | 25.12324 | 29195 ft | 281 kts | 354° |
| 2026-04-23 21:06 | 65.11041 | 25.12357 | 28826 ft | 274 kts | 353° |
| 2026-04-23 21:07 | 65.12916 | 25.12391 | 28467 ft | 268 kts | 353° |
| 2026-04-23 21:07 | 65.14799 | 25.12411 | 28117 ft | 281 kts | 354° |
| 2026-04-23 21:07 | 65.16865 | 25.12417 | 27744 ft | 310 kts | 354° |
| 2026-04-23 21:07 | 65.19094 | 25.12429 | 27312 ft | 334 kts | 355° |
| 2026-04-23 21:08 | 65.21460 | 25.12461 | 26851 ft | 345 kts | 355° |
| 2026-04-23 21:08 | 65.23862 | 25.12505 | 26386 ft | 348 kts | 355° |
| 2026-04-23 21:08 | 65.26263 | 25.12552 | 25924 ft | 347 kts | 354° |
| 2026-04-23 21:08 | 65.28684 | 25.12600 | 25462 ft | 347 kts | 355° |
| 2026-04-23 21:09 | 65.31073 | 25.12646 | 25020 ft | 348 kts | 355° |
| 2026-04-23 21:09 | 65.33503 | 25.12692 | 24552 ft | 350 kts | 354° |
| 2026-04-23 21:09 | 65.35938 | 25.12736 | 24071 ft | 352 kts | 355° |
| 2026-04-23 21:09 | 65.38387 | 25.12780 | 23616 ft | 354 kts | 355° |
| 2026-04-23 21:10 | 65.40863 | 25.12811 | 23136 ft | 357 kts | 355° |
| 2026-04-23 21:10 | 65.43373 | 25.12795 | 22634 ft | 361 kts | 355° |
| 2026-04-23 21:10 | 65.45869 | 25.12781 | 22153 ft | 364 kts | 355° |
| 2026-04-23 21:10 | 65.47555 | 25.12771 | 21817 ft | 367 kts | 355° |
| 2026-04-23 21:11 | 65.51013 | 25.12751 | 21162 ft | 373 kts | 356° |
| 2026-04-23 21:11 | 65.53592 | 25.12737 | 20669 ft | 377 kts | 356° |
| 2026-04-23 21:11 | 65.56203 | 25.12724 | 20160 ft | 378 kts | 356° |
| 2026-04-23 21:11 | 65.58869 | 25.12711 | 19661 ft | 379 kts | 356° |
| 2026-04-23 21:12 | 65.61482 | 25.12700 | 19155 ft | 379 kts | 355° |
| 2026-04-23 21:12 | 65.64129 | 25.12687 | 18657 ft | 380 kts | 356° |
| 2026-04-23 21:12 | 65.66741 | 25.12674 | 18141 ft | 380 kts | 356° |
| 2026-04-23 21:12 | 65.69370 | 25.12662 | 17655 ft | 380 kts | 356° |
| 2026-04-23 21:13 | 65.72008 | 25.12649 | 17141 ft | 379 kts | 356° |
| 2026-04-23 21:13 | 65.74606 | 25.12637 | 16649 ft | 376 kts | 356° |
| 2026-04-23 21:13 | 65.77216 | 25.12625 | 16144 ft | 374 kts | 357° |
| 2026-04-23 21:13 | 65.79802 | 25.12611 | 15653 ft | 374 kts | 357° |
| 2026-04-23 21:14 | 65.82420 | 25.12598 | 15154 ft | 374 kts | 357° |
| 2026-04-23 21:14 | 65.85000 | 25.12585 | 14660 ft | 373 kts | 357° |
| 2026-04-23 21:14 | 65.87578 | 25.12572 | 14163 ft | 372 kts | 357° |
| 2026-04-23 21:14 | 65.90171 | 25.12559 | 13686 ft | 370 kts | 357° |
| 2026-04-23 21:15 | 65.92711 | 25.12547 | 13321 ft | 365 kts | 357° |
| 2026-04-23 21:15 | 65.95273 | 25.12533 | 12973 ft | 369 kts | 357° |
| 2026-04-23 21:15 | 65.97817 | 25.12518 | 12470 ft | 367 kts | 358° |
| 2026-04-23 21:15 | 66.00386 | 25.12505 | 11982 ft | 367 kts | 357° |
| 2026-04-23 21:16 | 66.02918 | 25.12492 | 11495 ft | 365 kts | 358° |
| 2026-04-23 21:16 | 66.05444 | 25.12478 | 11020 ft | 364 kts | 358° |
| 2026-04-23 21:16 | 66.07964 | 25.12465 | 10534 ft | 364 kts | 358° |
| 2026-04-23 21:16 | 66.10408 | 25.12924 | 10025 ft | 338 kts | 9° |
| 2026-04-23 21:17 | 66.12511 | 25.14781 | 9581 ft | 314 kts | 22° |
| 2026-04-23 21:17 | 66.14381 | 25.17299 | 9096 ft | 294 kts | 24° |
| 2026-04-23 21:17 | 66.16079 | 25.19655 | 8708 ft | 275 kts | 24° |
| 2026-04-23 21:17 | 66.17706 | 25.21907 | 8312 ft | 260 kts | 24° |
| 2026-04-23 21:18 | 66.18755 | 25.23358 | 8073 ft | 250 kts | 24° |
| 2026-04-23 21:18 | 66.20767 | 25.26133 | 7627 ft | 252 kts | 24° |
| 2026-04-23 21:18 | 66.21786 | 25.27536 | 7346 ft | 251 kts | 24° |
| 2026-04-23 21:18 | 66.23789 | 25.30311 | 6883 ft | 245 kts | 24° |
| 2026-04-23 21:19 | 66.25275 | 25.32369 | 6520 ft | 242 kts | 24° |
| 2026-04-23 21:19 | 66.26727 | 25.34385 | 6179 ft | 241 kts | 24° |
| 2026-04-23 21:19 | 66.28194 | 25.36421 | 5831 ft | 240 kts | 24° |
| 2026-04-23 21:19 | 66.29639 | 25.38433 | 5475 ft | 237 kts | 24° |
| 2026-04-23 21:20 | 66.31042 | 25.40392 | 5108 ft | 226 kts | 24° |
| 2026-04-23 21:20 | 66.32375 | 25.42262 | 4825 ft | 212 kts | 24° |
| 2026-04-23 21:20 | 66.33257 | 25.43487 | 4611 ft | 232 kts | 24° |
| 2026-04-23 21:20 | 66.35413 | 25.46450 | 4104 ft | 283 kts | 25° |
| 2026-04-23 21:21 | 66.37150 | 25.48886 | 3685 ft | 282 kts | 25° |
| 2026-04-23 21:21 | 66.38820 | 25.51240 | 3286 ft | 274 kts | 25° |
| 2026-04-23 21:21 | 66.40463 | 25.53558 | 2896 ft | 269 kts | 25° |
| 2026-04-23 21:21 | 66.42067 | 25.55876 | 2556 ft | 264 kts | 28° |
| 2026-04-23 21:22 | 66.43617 | 25.58629 | 2505 ft | 282 kts | 33° |
| 2026-04-23 21:22 | 66.45195 | 25.61620 | 2514 ft | 287 kts | 33° |
| 2026-04-23 21:22 | 66.46798 | 25.64663 | 2502 ft | 292 kts | 33° |
| 2026-04-23 21:22 | 66.48383 | 25.67702 | 2508 ft | 278 kts | 34° |
| 2026-04-23 21:23 | 66.49882 | 25.70558 | 2256 ft | 264 kts | 34° |
| 2026-04-23 21:23 | 66.51299 | 25.73271 | 1827 ft | 251 kts | 34° |
| 2026-04-23 21:23 | 66.52612 | 25.75785 | 1401 ft | 221 kts | 33° |
| 2026-04-23 21:23 | 66.53779 | 25.77907 | 1103 ft | 195 kts | 34° |
| 2026-04-23 21:24 | 66.54777 | 25.79809 | 874 ft | 168 kts | 34° |
| 2026-04-23 21:24 | 66.55646 | 25.81449 | 646 ft | 142 kts | 35° |
| 2026-04-23 21:24 | 66.56280 | 25.82662 | 651 ft | 60 kts | 38° |
| 2026-04-23 21:24 | 66.56523 | 25.83124 | 654 ft | 31 kts | 40° |
| 2026-04-23 21:25 | 66.56571 | 25.83248 | 653 ft | 4 kts | 31° |
| 2026-04-23 21:25 | 66.56598 | 25.83299 | 652 ft | 9 kts | 37° |
| 2026-04-23 21:25 | 66.56621 | 25.83448 | 649 ft | 4 kts | 119° |
| 2026-04-23 21:25 | 66.56587 | 25.83571 | 646 ft | 12 kts | 126° |
| 2026-04-23 21:26 | 66.56528 | 25.83667 | 642 ft | 9 kts | 204° |
| 2026-04-23 21:26 | 66.56470 | 25.83554 | 644 ft | 11 kts | 219° |
| 2026-04-23 21:26 | 66.56400 | 25.83419 | 645 ft | 13 kts | 218° |
| 2026-04-23 21:26 | 66.56316 | 25.83264 | 646 ft | 15 kts | 216° |
| 2026-04-23 21:27 | 66.56258 | 25.83154 | 647 ft | 14 kts | 217° |
| 2026-04-23 21:27 | 66.56161 | 25.82970 | 646 ft | 12 kts | 219° |
| 2026-04-23 21:27 | 66.56087 | 25.82822 | 647 ft | 15 kts | 218° |
| 2026-04-23 21:27 | 66.56003 | 25.82699 | 643 ft | 10 kts | 163° |
| 2026-04-23 21:28 | 66.55971 | 25.82792 | 644 ft | 3 kts | 82° |
| 2026-04-23 21:28 | 66.55978 | 25.82864 | 645 ft | 7 kts | 79° |
| 2026-04-23 21:28 | 66.55935 | 25.82928 | 645 ft | 8 kts | 173° |
| 2026-04-23 21:28 | 66.55917 | 25.82935 | 645 ft | 3 kts | 169° |
| 2026-04-23 21:29 | 66.55915 | 25.82936 | 645 ft | 0 kts | 169° |